sensor_id;sensor_type;location;lat;lon;timestamp;P1;durP1;ratioP1;P2;durP2;ratioP2
15356;SDS011;7778;48.792;9.260;2022-11-15T00:01:46;2.75;;;2.17;;
15356;SDS011;7778;48.792;9.260;2022-11-15T00:04:34;5.13;;;2.00;;
15356;SDS011;7778;48.792;9.260;2022-11-15T00:07:20;3.03;;;1.90;;
15356;SDS011;7778;48.792;9.260;2022-11-15T00:10:06;4.30;;;2.20;;
15356;SDS011;7778;48.792;9.260;2022-11-15T00:12:54;3.83;;;2.17;;
15356;SDS011;7778;48.792;9.260;2022-11-15T00:15:40;4.20;;;2.78;;
15356;SDS011;7778;48.792;9.260;2022-11-15T00:18:26;6.40;;;3.20;;
15356;SDS011;7778;48.792;9.260;2022-11-15T00:21:13;7.25;;;3.20;;
15356;SDS011;7778;48.792;9.260;2022-11-15T00:23:59;5.47;;;3.38;;
15356;SDS011;7778;48.792;9.260;2022-11-15T00:26:45;6.70;;;2.95;;
15356;SDS011;7778;48.792;9.260;2022-11-15T00:29:32;4.97;;;3.03;;
15356;SDS011;7778;48.792;9.260;2022-11-15T00:32:18;6.35;;;2.97;;
15356;SDS011;7778;48.792;9.260;2022-11-15T00:35:09;4.38;;;2.60;;
15356;SDS011;7778;48.792;9.260;2022-11-15T00:37:56;3.63;;;2.53;;
15356;SDS011;7778;48.792;9.260;2022-11-15T00:40:43;5.57;;;1.98;;
15356;SDS011;7778;48.792;9.260;2022-11-15T00:43:28;2.95;;;2.00;;
15356;SDS011;7778;48.792;9.260;2022-11-15T00:46:16;3.85;;;2.50;;
15356;SDS011;7778;48.792;9.260;2022-11-15T00:49:01;3.67;;;2.30;;
15356;SDS011;7778;48.792;9.260;2022-11-15T00:51:47;3.33;;;2.17;;
15356;SDS011;7778;48.792;9.260;2022-11-15T00:54:32;3.50;;;2.20;;
15356;SDS011;7778;48.792;9.260;2022-11-15T00:57:17;3.63;;;1.98;;
15356;SDS011;7778;48.792;9.260;2022-11-15T01:00:03;3.00;;;1.90;;
15356;SDS011;7778;48.792;9.260;2022-11-15T01:02:52;3.70;;;2.20;;
15356;SDS011;7778;48.792;9.260;2022-11-15T01:05:38;2.28;;;1.65;;
15356;SDS011;7778;48.792;9.260;2022-11-15T01:08:23;2.28;;;1.88;;
15356;SDS011;7778;48.792;9.260;2022-11-15T01:11:10;2.17;;;1.63;;
15356;SDS011;7778;48.792;9.260;2022-11-15T01:13:57;3.53;;;2.13;;
15356;SDS011;7778;48.792;9.260;2022-11-15T01:16:42;2.70;;;1.90;;
15356;SDS011;7778;48.792;9.260;2022-11-15T01:19:29;3.00;;;1.73;;
15356;SDS011;7778;48.792;9.260;2022-11-15T01:22:15;2.72;;;2.03;;
15356;SDS011;7778;48.792;9.260;2022-11-15T01:25:01;4.05;;;2.42;;
15356;SDS011;7778;48.792;9.260;2022-11-15T01:27:46;4.20;;;2.53;;
15356;SDS011;7778;48.792;9.260;2022-11-15T01:30:32;6.88;;;2.38;;
15356;SDS011;7778;48.792;9.260;2022-11-15T01:33:18;4.95;;;2.75;;
15356;SDS011;7778;48.792;9.260;2022-11-15T01:36:05;3.28;;;2.30;;
15356;SDS011;7778;48.792;9.260;2022-11-15T01:38:53;3.80;;;2.78;;
15356;SDS011;7778;48.792;9.260;2022-11-15T01:41:39;5.15;;;2.53;;
15356;SDS011;7778;48.792;9.260;2022-11-15T01:44:34;3.88;;;2.55;;
15356;SDS011;7778;48.792;9.260;2022-11-15T01:47:26;4.15;;;2.50;;
15356;SDS011;7778;48.792;9.260;2022-11-15T01:50:17;4.05;;;2.58;;
15356;SDS011;7778;48.792;9.260;2022-11-15T01:53:08;4.38;;;2.90;;
15356;SDS011;7778;48.792;9.260;2022-11-15T01:55:54;5.38;;;2.72;;
15356;SDS011;7778;48.792;9.260;2022-11-15T01:58:40;5.32;;;2.88;;
15356;SDS011;7778;48.792;9.260;2022-11-15T02:01:28;7.57;;;2.65;;
15356;SDS011;7778;48.792;9.260;2022-11-15T02:04:17;3.97;;;2.15;;
15356;SDS011;7778;48.792;9.260;2022-11-15T02:07:08;7.18;;;3.05;;
15356;SDS011;7778;48.792;9.260;2022-11-15T02:09:57;5.18;;;2.50;;
15356;SDS011;7778;48.792;9.260;2022-11-15T02:12:47;4.57;;;2.85;;
15356;SDS011;7778;48.792;9.260;2022-11-15T02:15:36;5.03;;;2.15;;
15356;SDS011;7778;48.792;9.260;2022-11-15T02:18:30;4.47;;;2.47;;
15356;SDS011;7778;48.792;9.260;2022-11-15T02:21:21;3.45;;;2.08;;
15356;SDS011;7778;48.792;9.260;2022-11-15T02:24:30;6.90;;;2.78;;
15356;SDS011;7778;48.792;9.260;2022-11-15T02:27:56;3.97;;;2.35;;
15356;SDS011;7778;48.792;9.260;2022-11-15T02:30:58;4.78;;;2.58;;
15356;SDS011;7778;48.792;9.260;2022-11-15T02:33:51;3.58;;;2.40;;
15356;SDS011;7778;48.792;9.260;2022-11-15T02:36:47;4.15;;;2.53;;
15356;SDS011;7778;48.792;9.260;2022-11-15T02:39:45;10.63;;;2.55;;
15356;SDS011;7778;48.792;9.260;2022-11-15T02:42:36;4.32;;;2.83;;
15356;SDS011;7778;48.792;9.260;2022-11-15T02:45:46;4.93;;;2.88;;
15356;SDS011;7778;48.792;9.260;2022-11-15T02:48:40;5.95;;;2.97;;
15356;SDS011;7778;48.792;9.260;2022-11-15T02:51:27;5.57;;;2.78;;
15356;SDS011;7778;48.792;9.260;2022-11-15T02:54:14;2.53;;;2.33;;
15356;SDS011;7778;48.792;9.260;2022-11-15T02:57:06;7.32;;;3.45;;
15356;SDS011;7778;48.792;9.260;2022-11-15T03:00:04;4.32;;;2.40;;
15356;SDS011;7778;48.792;9.260;2022-11-15T03:02:57;3.22;;;1.98;;
15356;SDS011;7778;48.792;9.260;2022-11-15T03:06:06;3.10;;;2.30;;
15356;SDS011;7778;48.792;9.260;2022-11-15T03:09:07;6.28;;;2.38;;
15356;SDS011;7778;48.792;9.260;2022-11-15T03:11:59;4.85;;;1.98;;
15356;SDS011;7778;48.792;9.260;2022-11-15T03:14:53;4.53;;;2.63;;
15356;SDS011;7778;48.792;9.260;2022-11-15T03:17:45;6.25;;;2.58;;
15356;SDS011;7778;48.792;9.260;2022-11-15T03:20:37;3.95;;;2.35;;
15356;SDS011;7778;48.792;9.260;2022-11-15T03:23:24;4.18;;;2.55;;
15356;SDS011;7778;48.792;9.260;2022-11-15T03:26:11;4.32;;;2.10;;
15356;SDS011;7778;48.792;9.260;2022-11-15T03:29:00;2.63;;;1.92;;
15356;SDS011;7778;48.792;9.260;2022-11-15T03:31:52;2.30;;;2.10;;
15356;SDS011;7778;48.792;9.260;2022-11-15T03:34:44;5.88;;;2.50;;
15356;SDS011;7778;48.792;9.260;2022-11-15T03:37:35;5.60;;;2.78;;
15356;SDS011;7778;48.792;9.260;2022-11-15T03:40:29;3.22;;;2.33;;
15356;SDS011;7778;48.792;9.260;2022-11-15T03:43:22;4.50;;;2.53;;
15356;SDS011;7778;48.792;9.260;2022-11-15T03:46:16;4.60;;;2.17;;
15356;SDS011;7778;48.792;9.260;2022-11-15T03:49:10;4.50;;;2.67;;
15356;SDS011;7778;48.792;9.260;2022-11-15T03:51:59;7.20;;;3.70;;
15356;SDS011;7778;48.792;9.260;2022-11-15T03:54:47;7.97;;;3.47;;
15356;SDS011;7778;48.792;9.260;2022-11-15T03:57:36;5.32;;;3.15;;
15356;SDS011;7778;48.792;9.260;2022-11-15T04:00:22;5.88;;;3.10;;
15356;SDS011;7778;48.792;9.260;2022-11-15T04:03:07;4.13;;;2.50;;
15356;SDS011;7778;48.792;9.260;2022-11-15T04:05:53;4.55;;;2.85;;
15356;SDS011;7778;48.792;9.260;2022-11-15T04:08:38;4.13;;;2.90;;
15356;SDS011;7778;48.792;9.260;2022-11-15T04:11:24;4.90;;;2.35;;
15356;SDS011;7778;48.792;9.260;2022-11-15T04:14:10;3.85;;;2.47;;
15356;SDS011;7778;48.792;9.260;2022-11-15T04:16:56;6.25;;;2.83;;
15356;SDS011;7778;48.792;9.260;2022-11-15T04:19:41;7.10;;;2.80;;
15356;SDS011;7778;48.792;9.260;2022-11-15T04:22:45;5.40;;;2.45;;
15356;SDS011;7778;48.792;9.260;2022-11-15T04:25:49;4.57;;;2.38;;
15356;SDS011;7778;48.792;9.260;2022-11-15T04:28:37;7.13;;;2.97;;
15356;SDS011;7778;48.792;9.260;2022-11-15T04:31:44;3.22;;;2.50;;
15356;SDS011;7778;48.792;9.260;2022-11-15T04:34:30;4.53;;;2.58;;
15356;SDS011;7778;48.792;9.260;2022-11-15T04:37:16;4.63;;;2.35;;
15356;SDS011;7778;48.792;9.260;2022-11-15T04:40:01;4.60;;;3.10;;
15356;SDS011;7778;48.792;9.260;2022-11-15T04:42:47;4.63;;;2.72;;
15356;SDS011;7778;48.792;9.260;2022-11-15T04:45:32;6.00;;;3.05;;
15356;SDS011;7778;48.792;9.260;2022-11-15T04:48:19;8.10;;;2.72;;
15356;SDS011;7778;48.792;9.260;2022-11-15T04:51:05;4.43;;;2.50;;
15356;SDS011;7778;48.792;9.260;2022-11-15T04:53:50;6.22;;;3.10;;
15356;SDS011;7778;48.792;9.260;2022-11-15T04:56:35;5.75;;;2.75;;
15356;SDS011;7778;48.792;9.260;2022-11-15T04:59:21;5.82;;;2.72;;
15356;SDS011;7778;48.792;9.260;2022-11-15T05:02:06;4.65;;;3.17;;
15356;SDS011;7778;48.792;9.260;2022-11-15T05:04:53;5.25;;;3.25;;
15356;SDS011;7778;48.792;9.260;2022-11-15T05:07:38;4.80;;;2.85;;
15356;SDS011;7778;48.792;9.260;2022-11-15T05:10:23;5.93;;;2.58;;
15356;SDS011;7778;48.792;9.260;2022-11-15T05:13:09;4.32;;;2.88;;
15356;SDS011;7778;48.792;9.260;2022-11-15T05:15:54;6.22;;;3.50;;
15356;SDS011;7778;48.792;9.260;2022-11-15T05:18:40;6.85;;;3.58;;
15356;SDS011;7778;48.792;9.260;2022-11-15T05:21:27;5.88;;;2.90;;
15356;SDS011;7778;48.792;9.260;2022-11-15T05:24:12;4.60;;;3.08;;
15356;SDS011;7778;48.792;9.260;2022-11-15T05:26:58;9.60;;;3.20;;
15356;SDS011;7778;48.792;9.260;2022-11-15T05:29:44;8.23;;;3.47;;
15356;SDS011;7778;48.792;9.260;2022-11-15T05:32:30;7.03;;;3.90;;
15356;SDS011;7778;48.792;9.260;2022-11-15T05:35:17;5.00;;;3.05;;
15356;SDS011;7778;48.792;9.260;2022-11-15T05:38:09;5.05;;;3.33;;
15356;SDS011;7778;48.792;9.260;2022-11-15T05:40:54;7.28;;;3.90;;
15356;SDS011;7778;48.792;9.260;2022-11-15T05:43:40;4.80;;;3.30;;
15356;SDS011;7778;48.792;9.260;2022-11-15T05:46:26;5.25;;;2.78;;
15356;SDS011;7778;48.792;9.260;2022-11-15T05:49:13;5.22;;;3.22;;
15356;SDS011;7778;48.792;9.260;2022-11-15T05:52:05;9.50;;;3.92;;
15356;SDS011;7778;48.792;9.260;2022-11-15T05:54:58;6.28;;;4.25;;
15356;SDS011;7778;48.792;9.260;2022-11-15T05:57:44;8.95;;;4.68;;
15356;SDS011;7778;48.792;9.260;2022-11-15T06:00:30;5.95;;;3.58;;
15356;SDS011;7778;48.792;9.260;2022-11-15T06:03:16;9.48;;;4.40;;
15356;SDS011;7778;48.792;9.260;2022-11-15T06:06:01;7.55;;;3.75;;
15356;SDS011;7778;48.792;9.260;2022-11-15T06:08:47;7.50;;;3.70;;
15356;SDS011;7778;48.792;9.260;2022-11-15T06:11:33;6.35;;;4.43;;
15356;SDS011;7778;48.792;9.260;2022-11-15T06:14:19;6.93;;;3.88;;
15356;SDS011;7778;48.792;9.260;2022-11-15T06:17:05;5.90;;;3.85;;
15356;SDS011;7778;48.792;9.260;2022-11-15T06:19:50;7.15;;;3.63;;
15356;SDS011;7778;48.792;9.260;2022-11-15T06:22:36;6.40;;;3.58;;
15356;SDS011;7778;48.792;9.260;2022-11-15T06:25:21;6.65;;;3.65;;
15356;SDS011;7778;48.792;9.260;2022-11-15T06:28:08;9.43;;;4.20;;
15356;SDS011;7778;48.792;9.260;2022-11-15T06:30:53;7.90;;;3.97;;
15356;SDS011;7778;48.792;9.260;2022-11-15T06:33:39;5.82;;;3.53;;
15356;SDS011;7778;48.792;9.260;2022-11-15T06:36:25;5.90;;;3.80;;
15356;SDS011;7778;48.792;9.260;2022-11-15T06:39:10;6.38;;;4.15;;
15356;SDS011;7778;48.792;9.260;2022-11-15T06:41:56;4.85;;;3.33;;
15356;SDS011;7778;48.792;9.260;2022-11-15T06:44:43;7.72;;;3.55;;
15356;SDS011;7778;48.792;9.260;2022-11-15T06:47:28;5.15;;;3.00;;
15356;SDS011;7778;48.792;9.260;2022-11-15T06:50:14;4.13;;;2.80;;
15356;SDS011;7778;48.792;9.260;2022-11-15T06:53:00;4.75;;;3.00;;
15356;SDS011;7778;48.792;9.260;2022-11-15T06:55:49;5.53;;;2.85;;
15356;SDS011;7778;48.792;9.260;2022-11-15T06:58:35;4.55;;;3.20;;
15356;SDS011;7778;48.792;9.260;2022-11-15T07:01:22;6.63;;;3.30;;
15356;SDS011;7778;48.792;9.260;2022-11-15T07:04:07;4.05;;;2.40;;
15356;SDS011;7778;48.792;9.260;2022-11-15T07:06:53;6.28;;;3.10;;
15356;SDS011;7778;48.792;9.260;2022-11-15T07:09:38;7.03;;;3.28;;
15356;SDS011;7778;48.792;9.260;2022-11-15T07:12:24;6.35;;;3.13;;
15356;SDS011;7778;48.792;9.260;2022-11-15T07:15:09;5.28;;;2.90;;
15356;SDS011;7778;48.792;9.260;2022-11-15T07:17:56;5.07;;;3.17;;
15356;SDS011;7778;48.792;9.260;2022-11-15T07:20:45;3.83;;;2.47;;
15356;SDS011;7778;48.792;9.260;2022-11-15T07:23:30;6.50;;;3.22;;
15356;SDS011;7778;48.792;9.260;2022-11-15T07:26:16;5.93;;;3.40;;
15356;SDS011;7778;48.792;9.260;2022-11-15T07:29:01;4.18;;;3.15;;
15356;SDS011;7778;48.792;9.260;2022-11-15T07:31:47;4.70;;;2.72;;
15356;SDS011;7778;48.792;9.260;2022-11-15T07:34:35;4.47;;;2.75;;
15356;SDS011;7778;48.792;9.260;2022-11-15T07:37:20;4.22;;;2.58;;
15356;SDS011;7778;48.792;9.260;2022-11-15T07:40:07;5.82;;;3.30;;
15356;SDS011;7778;48.792;9.260;2022-11-15T07:42:58;5.45;;;2.45;;
15356;SDS011;7778;48.792;9.260;2022-11-15T07:45:44;5.53;;;3.08;;
15356;SDS011;7778;48.792;9.260;2022-11-15T07:48:30;6.57;;;3.15;;
15356;SDS011;7778;48.792;9.260;2022-11-15T07:51:17;4.10;;;3.00;;
15356;SDS011;7778;48.792;9.260;2022-11-15T07:54:03;4.07;;;2.55;;
15356;SDS011;7778;48.792;9.260;2022-11-15T07:56:48;6.38;;;3.28;;
15356;SDS011;7778;48.792;9.260;2022-11-15T07:59:34;5.43;;;2.63;;
15356;SDS011;7778;48.792;9.260;2022-11-15T08:02:19;4.85;;;2.92;;
15356;SDS011;7778;48.792;9.260;2022-11-15T08:05:06;3.50;;;2.38;;
15356;SDS011;7778;48.792;9.260;2022-11-15T08:07:54;4.50;;;2.60;;
15356;SDS011;7778;48.792;9.260;2022-11-15T08:10:40;4.05;;;2.55;;
15356;SDS011;7778;48.792;9.260;2022-11-15T08:13:25;3.47;;;2.30;;
15356;SDS011;7778;48.792;9.260;2022-11-15T08:16:11;5.35;;;2.47;;
15356;SDS011;7778;48.792;9.260;2022-11-15T08:18:57;7.07;;;3.55;;
15356;SDS011;7778;48.792;9.260;2022-11-15T08:21:42;7.85;;;3.63;;
15356;SDS011;7778;48.792;9.260;2022-11-15T08:24:29;5.65;;;3.53;;
15356;SDS011;7778;48.792;9.260;2022-11-15T08:27:14;4.93;;;2.95;;
15356;SDS011;7778;48.792;9.260;2022-11-15T08:30:00;6.30;;;3.42;;
15356;SDS011;7778;48.792;9.260;2022-11-15T08:32:46;6.57;;;3.15;;
15356;SDS011;7778;48.792;9.260;2022-11-15T08:35:32;7.22;;;3.35;;
15356;SDS011;7778;48.792;9.260;2022-11-15T08:38:17;7.15;;;3.15;;
15356;SDS011;7778;48.792;9.260;2022-11-15T08:41:04;6.78;;;3.38;;
15356;SDS011;7778;48.792;9.260;2022-11-15T08:43:50;4.60;;;2.80;;
15356;SDS011;7778;48.792;9.260;2022-11-15T08:46:36;6.25;;;3.60;;
15356;SDS011;7778;48.792;9.260;2022-11-15T08:49:21;6.40;;;3.75;;
15356;SDS011;7778;48.792;9.260;2022-11-15T08:52:07;8.35;;;3.97;;
15356;SDS011;7778;48.792;9.260;2022-11-15T08:54:53;5.97;;;2.90;;
15356;SDS011;7778;48.792;9.260;2022-11-15T08:57:39;8.02;;;3.20;;
15356;SDS011;7778;48.792;9.260;2022-11-15T09:00:25;4.82;;;2.80;;
15356;SDS011;7778;48.792;9.260;2022-11-15T09:03:10;4.50;;;2.67;;
15356;SDS011;7778;48.792;9.260;2022-11-15T09:05:56;3.65;;;2.75;;
15356;SDS011;7778;48.792;9.260;2022-11-15T09:08:42;7.15;;;3.15;;
15356;SDS011;7778;48.792;9.260;2022-11-15T09:11:28;6.25;;;3.15;;
15356;SDS011;7778;48.792;9.260;2022-11-15T09:14:15;4.80;;;3.08;;
15356;SDS011;7778;48.792;9.260;2022-11-15T09:17:01;4.47;;;2.67;;
15356;SDS011;7778;48.792;9.260;2022-11-15T09:19:47;6.13;;;3.28;;
15356;SDS011;7778;48.792;9.260;2022-11-15T09:22:33;4.72;;;2.38;;
15356;SDS011;7778;48.792;9.260;2022-11-15T09:25:18;3.83;;;2.80;;
15356;SDS011;7778;48.792;9.260;2022-11-15T09:28:05;7.85;;;4.03;;
15356;SDS011;7778;48.792;9.260;2022-11-15T09:30:55;9.45;;;3.78;;
15356;SDS011;7778;48.792;9.260;2022-11-15T09:33:43;5.38;;;3.58;;
15356;SDS011;7778;48.792;9.260;2022-11-15T09:36:29;6.70;;;3.72;;
15356;SDS011;7778;48.792;9.260;2022-11-15T09:39:14;4.80;;;3.30;;
15356;SDS011;7778;48.792;9.260;2022-11-15T09:42:06;5.50;;;3.03;;
15356;SDS011;7778;48.792;9.260;2022-11-15T09:45:17;5.50;;;2.75;;
15356;SDS011;7778;48.792;9.260;2022-11-15T09:48:13;5.43;;;2.90;;
15356;SDS011;7778;48.792;9.260;2022-11-15T09:51:12;6.53;;;3.10;;
15356;SDS011;7778;48.792;9.260;2022-11-15T09:54:09;4.35;;;2.75;;
15356;SDS011;7778;48.792;9.260;2022-11-15T09:57:06;4.60;;;2.35;;
15356;SDS011;7778;48.792;9.260;2022-11-15T10:00:00;3.13;;;2.05;;
15356;SDS011;7778;48.792;9.260;2022-11-15T10:02:57;2.88;;;2.20;;
15356;SDS011;7778;48.792;9.260;2022-11-15T10:05:57;3.28;;;2.38;;
15356;SDS011;7778;48.792;9.260;2022-11-15T10:08:49;2.92;;;2.33;;
15356;SDS011;7778;48.792;9.260;2022-11-15T10:11:40;9.68;;;3.20;;
15356;SDS011;7778;48.792;9.260;2022-11-15T10:14:27;5.80;;;3.13;;
15356;SDS011;7778;48.792;9.260;2022-11-15T10:17:28;8.25;;;4.50;;
15356;SDS011;7778;48.792;9.260;2022-11-15T10:20:44;4.60;;;2.85;;
15356;SDS011;7778;48.792;9.260;2022-11-15T10:23:35;4.93;;;2.70;;
15356;SDS011;7778;48.792;9.260;2022-11-15T10:26:20;4.30;;;2.15;;
15356;SDS011;7778;48.792;9.260;2022-11-15T10:29:08;7.43;;;2.60;;
15356;SDS011;7778;48.792;9.260;2022-11-15T10:31:53;5.05;;;2.88;;
15356;SDS011;7778;48.792;9.260;2022-11-15T10:34:39;4.55;;;2.70;;
15356;SDS011;7778;48.792;9.260;2022-11-15T10:37:27;4.32;;;2.38;;
15356;SDS011;7778;48.792;9.260;2022-11-15T10:40:17;5.38;;;2.78;;
15356;SDS011;7778;48.792;9.260;2022-11-15T10:43:12;4.40;;;2.30;;
15356;SDS011;7778;48.792;9.260;2022-11-15T10:46:04;3.70;;;2.72;;
15356;SDS011;7778;48.792;9.260;2022-11-15T10:49:11;3.72;;;1.90;;
15356;SDS011;7778;48.792;9.260;2022-11-15T10:52:00;2.10;;;1.80;;
15356;SDS011;7778;48.792;9.260;2022-11-15T10:54:58;4.00;;;2.53;;
15356;SDS011;7778;48.792;9.260;2022-11-15T10:57:52;3.33;;;2.05;;
15356;SDS011;7778;48.792;9.260;2022-11-15T11:00:40;2.22;;;1.85;;
15356;SDS011;7778;48.792;9.260;2022-11-15T11:03:28;8.10;;;2.47;;
15356;SDS011;7778;48.792;9.260;2022-11-15T11:06:17;4.40;;;2.28;;
15356;SDS011;7778;48.792;9.260;2022-11-15T11:09:03;6.00;;;2.50;;
15356;SDS011;7778;48.792;9.260;2022-11-15T11:11:53;4.88;;;2.30;;
15356;SDS011;7778;48.792;9.260;2022-11-15T11:14:40;3.25;;;1.88;;
15356;SDS011;7778;48.792;9.260;2022-11-15T11:17:32;3.90;;;1.85;;
15356;SDS011;7778;48.792;9.260;2022-11-15T11:20:32;2.90;;;2.00;;
15356;SDS011;7778;48.792;9.260;2022-11-15T11:23:30;3.55;;;2.13;;
15356;SDS011;7778;48.792;9.260;2022-11-15T11:26:33;3.97;;;2.30;;
15356;SDS011;7778;48.792;9.260;2022-11-15T11:29:31;4.70;;;2.20;;
15356;SDS011;7778;48.792;9.260;2022-11-15T11:32:35;4.90;;;2.20;;
15356;SDS011;7778;48.792;9.260;2022-11-15T11:35:48;2.88;;;2.08;;
15356;SDS011;7778;48.792;9.260;2022-11-15T11:38:47;4.35;;;2.03;;
15356;SDS011;7778;48.792;9.260;2022-11-15T11:41:45;2.53;;;1.85;;
15356;SDS011;7778;48.792;9.260;2022-11-15T11:44:43;5.10;;;2.30;;
15356;SDS011;7778;48.792;9.260;2022-11-15T11:47:46;2.47;;;1.80;;
15356;SDS011;7778;48.792;9.260;2022-11-15T11:50:36;3.90;;;2.15;;
15356;SDS011;7778;48.792;9.260;2022-11-15T11:53:25;4.32;;;2.15;;
15356;SDS011;7778;48.792;9.260;2022-11-15T11:56:16;3.08;;;2.05;;
15356;SDS011;7778;48.792;9.260;2022-11-15T11:59:10;4.82;;;2.17;;
15356;SDS011;7778;48.792;9.260;2022-11-15T12:02:10;2.97;;;1.55;;
15356;SDS011;7778;48.792;9.260;2022-11-15T12:05:07;5.28;;;2.63;;
15356;SDS011;7778;48.792;9.260;2022-11-15T12:08:03;2.70;;;1.85;;
15356;SDS011;7778;48.792;9.260;2022-11-15T12:11:12;3.13;;;1.73;;
15356;SDS011;7778;48.792;9.260;2022-11-15T12:14:01;5.00;;;2.20;;
15356;SDS011;7778;48.792;9.260;2022-11-15T12:16:50;3.22;;;2.05;;
15356;SDS011;7778;48.792;9.260;2022-11-15T12:19:37;3.35;;;2.03;;
15356;SDS011;7778;48.792;9.260;2022-11-15T12:22:24;3.05;;;1.92;;
15356;SDS011;7778;48.792;9.260;2022-11-15T12:25:21;2.90;;;1.80;;
15356;SDS011;7778;48.792;9.260;2022-11-15T12:28:12;3.50;;;1.63;;
15356;SDS011;7778;48.792;9.260;2022-11-15T12:31:06;2.55;;;1.80;;
15356;SDS011;7778;48.792;9.260;2022-11-15T12:34:00;2.92;;;2.10;;
15356;SDS011;7778;48.792;9.260;2022-11-15T12:36:50;3.25;;;2.00;;
15356;SDS011;7778;48.792;9.260;2022-11-15T12:50:10;3.05;;;1.80;;
15356;SDS011;7778;48.792;9.260;2022-11-15T12:56:21;5.35;;;1.98;;
15356;SDS011;7778;48.792;9.260;2022-11-15T12:59:07;3.75;;;2.10;;
15356;SDS011;7778;48.792;9.260;2022-11-15T13:02:15;5.05;;;2.00;;
15356;SDS011;7778;48.792;9.260;2022-11-15T13:08:56;2.83;;;1.75;;
15356;SDS011;7778;48.792;9.260;2022-11-15T13:11:45;3.85;;;1.92;;
15356;SDS011;7778;48.792;9.260;2022-11-15T13:14:46;3.65;;;2.05;;
15356;SDS011;7778;48.792;9.260;2022-11-15T13:17:35;6.13;;;1.75;;
15356;SDS011;7778;48.792;9.260;2022-11-15T13:20:26;3.45;;;2.10;;
15356;SDS011;7778;48.792;9.260;2022-11-15T13:23:13;6.53;;;2.05;;
15356;SDS011;7778;48.792;9.260;2022-11-15T13:26:12;4.07;;;2.15;;
15356;SDS011;7778;48.792;9.260;2022-11-15T13:29:01;2.38;;;1.90;;
15356;SDS011;7778;48.792;9.260;2022-11-15T13:31:48;4.97;;;2.20;;
15356;SDS011;7778;48.792;9.260;2022-11-15T13:34:34;4.43;;;2.03;;
15356;SDS011;7778;48.792;9.260;2022-11-15T13:37:29;4.95;;;1.92;;
15356;SDS011;7778;48.792;9.260;2022-11-15T13:40:24;3.80;;;1.90;;
15356;SDS011;7778;48.792;9.260;2022-11-15T13:43:17;1.83;;;1.65;;
15356;SDS011;7778;48.792;9.260;2022-11-15T13:46:16;5.05;;;2.38;;
15356;SDS011;7778;48.792;9.260;2022-11-15T13:49:05;5.05;;;1.98;;
15356;SDS011;7778;48.792;9.260;2022-11-15T13:51:55;4.13;;;2.00;;
15356;SDS011;7778;48.792;9.260;2022-11-15T13:54:43;3.95;;;1.70;;
15356;SDS011;7778;48.792;9.260;2022-11-15T13:57:37;4.63;;;2.20;;
15356;SDS011;7778;48.792;9.260;2022-11-15T14:00:32;5.25;;;1.98;;
15356;SDS011;7778;48.792;9.260;2022-11-15T14:03:24;2.55;;;1.98;;
15356;SDS011;7778;48.792;9.260;2022-11-15T14:06:12;3.15;;;1.75;;
15356;SDS011;7778;48.792;9.260;2022-11-15T14:09:03;4.45;;;2.22;;
15356;SDS011;7778;48.792;9.260;2022-11-15T14:12:29;3.38;;;2.03;;
15356;SDS011;7778;48.792;9.260;2022-11-15T14:15:18;6.68;;;3.20;;
15356;SDS011;7778;48.792;9.260;2022-11-15T14:21:28;3.13;;;2.25;;
15356;SDS011;7778;48.792;9.260;2022-11-15T14:24:14;3.58;;;2.33;;
15356;SDS011;7778;48.792;9.260;2022-11-15T14:27:15;7.28;;;3.00;;
15356;SDS011;7778;48.792;9.260;2022-11-15T14:30:12;6.53;;;3.00;;
15356;SDS011;7778;48.792;9.260;2022-11-15T14:33:00;5.63;;;2.50;;
15356;SDS011;7778;48.792;9.260;2022-11-15T14:35:48;2.13;;;1.65;;
15356;SDS011;7778;48.792;9.260;2022-11-15T14:38:35;4.95;;;2.65;;
15356;SDS011;7778;48.792;9.260;2022-11-15T14:41:22;6.60;;;2.92;;
15356;SDS011;7778;48.792;9.260;2022-11-15T14:44:10;5.35;;;3.05;;
15356;SDS011;7778;48.792;9.260;2022-11-15T14:47:02;4.10;;;2.50;;
15356;SDS011;7778;48.792;9.260;2022-11-15T14:49:48;6.40;;;2.85;;
15356;SDS011;7778;48.792;9.260;2022-11-15T14:52:36;5.15;;;2.83;;
15356;SDS011;7778;48.792;9.260;2022-11-15T14:55:22;4.75;;;2.80;;
15356;SDS011;7778;48.792;9.260;2022-11-15T14:58:18;6.13;;;3.03;;
15356;SDS011;7778;48.792;9.260;2022-11-15T15:01:09;4.30;;;2.42;;
15356;SDS011;7778;48.792;9.260;2022-11-15T15:04:03;3.92;;;2.85;;
15356;SDS011;7778;48.792;9.260;2022-11-15T15:06:49;6.38;;;2.70;;
15356;SDS011;7778;48.792;9.260;2022-11-15T15:09:35;5.45;;;2.72;;
15356;SDS011;7778;48.792;9.260;2022-11-15T15:12:27;4.90;;;2.50;;
15356;SDS011;7778;48.792;9.260;2022-11-15T15:15:14;5.05;;;2.47;;
15356;SDS011;7778;48.792;9.260;2022-11-15T15:18:02;5.80;;;2.97;;
15356;SDS011;7778;48.792;9.260;2022-11-15T15:20:54;4.82;;;2.88;;
15356;SDS011;7778;48.792;9.260;2022-11-15T15:23:46;4.75;;;2.70;;
15356;SDS011;7778;48.792;9.260;2022-11-15T15:26:33;4.40;;;2.78;;
15356;SDS011;7778;48.792;9.260;2022-11-15T15:29:19;3.85;;;2.55;;
15356;SDS011;7778;48.792;9.260;2022-11-15T15:32:05;4.40;;;2.05;;
15356;SDS011;7778;48.792;9.260;2022-11-15T15:34:51;3.95;;;2.35;;
15356;SDS011;7778;48.792;9.260;2022-11-15T15:37:37;3.72;;;2.60;;
15356;SDS011;7778;48.792;9.260;2022-11-15T15:40:23;5.45;;;2.40;;
15356;SDS011;7778;48.792;9.260;2022-11-15T15:43:11;6.38;;;2.33;;
15356;SDS011;7778;48.792;9.260;2022-11-15T15:45:56;4.90;;;2.03;;
15356;SDS011;7778;48.792;9.260;2022-11-15T15:48:42;6.13;;;2.53;;
15356;SDS011;7778;48.792;9.260;2022-11-15T15:51:28;3.50;;;1.80;;
15356;SDS011;7778;48.792;9.260;2022-11-15T15:54:14;3.25;;;1.90;;
15356;SDS011;7778;48.792;9.260;2022-11-15T15:56:59;3.03;;;2.05;;
15356;SDS011;7778;48.792;9.260;2022-11-15T15:59:46;2.92;;;1.77;;
15356;SDS011;7778;48.792;9.260;2022-11-15T16:02:32;3.35;;;1.85;;
15356;SDS011;7778;48.792;9.260;2022-11-15T16:05:18;1.83;;;1.73;;
15356;SDS011;7778;48.792;9.260;2022-11-15T16:08:03;3.35;;;1.90;;
15356;SDS011;7778;48.792;9.260;2022-11-15T16:10:49;2.55;;;1.50;;
15356;SDS011;7778;48.792;9.260;2022-11-15T16:13:35;3.05;;;1.88;;
15356;SDS011;7778;48.792;9.260;2022-11-15T16:16:22;2.85;;;2.03;;
15356;SDS011;7778;48.792;9.260;2022-11-15T16:19:08;5.70;;;2.08;;
15356;SDS011;7778;48.792;9.260;2022-11-15T16:21:55;5.30;;;2.58;;
15356;SDS011;7778;48.792;9.260;2022-11-15T16:24:41;5.53;;;2.78;;
15356;SDS011;7778;48.792;9.260;2022-11-15T16:27:26;4.40;;;2.63;;
15356;SDS011;7778;48.792;9.260;2022-11-15T16:30:12;4.40;;;2.78;;
15356;SDS011;7778;48.792;9.260;2022-11-15T16:33:03;4.20;;;2.50;;
15356;SDS011;7778;48.792;9.260;2022-11-15T16:35:49;3.15;;;1.83;;
15356;SDS011;7778;48.792;9.260;2022-11-15T16:38:35;3.50;;;1.80;;
15356;SDS011;7778;48.792;9.260;2022-11-15T16:41:22;5.07;;;2.05;;
15356;SDS011;7778;48.792;9.260;2022-11-15T16:44:07;3.90;;;1.58;;
15356;SDS011;7778;48.792;9.260;2022-11-15T16:46:53;1.60;;;1.50;;
15356;SDS011;7778;48.792;9.260;2022-11-15T16:49:40;1.50;;;1.40;;
15356;SDS011;7778;48.792;9.260;2022-11-15T16:52:28;5.03;;;2.10;;
15356;SDS011;7778;48.792;9.260;2022-11-15T16:55:14;2.95;;;1.90;;
15356;SDS011;7778;48.792;9.260;2022-11-15T16:57:59;2.10;;;1.50;;
15356;SDS011;7778;48.792;9.260;2022-11-15T17:00:48;2.65;;;1.70;;
15356;SDS011;7778;48.792;9.260;2022-11-15T17:03:35;2.90;;;1.95;;
15356;SDS011;7778;48.792;9.260;2022-11-15T17:06:23;3.85;;;2.00;;
15356;SDS011;7778;48.792;9.260;2022-11-15T17:09:10;3.60;;;2.25;;
15356;SDS011;7778;48.792;9.260;2022-11-15T17:11:56;2.95;;;1.92;;
15356;SDS011;7778;48.792;9.260;2022-11-15T17:14:42;3.75;;;2.17;;
15356;SDS011;7778;48.792;9.260;2022-11-15T17:17:28;3.85;;;2.33;;
15356;SDS011;7778;48.792;9.260;2022-11-15T17:20:15;3.50;;;2.03;;
15356;SDS011;7778;48.792;9.260;2022-11-15T17:23:04;4.50;;;2.38;;
15356;SDS011;7778;48.792;9.260;2022-11-15T17:25:57;5.07;;;2.33;;
15356;SDS011;7778;48.792;9.260;2022-11-15T17:28:43;6.50;;;2.47;;
15356;SDS011;7778;48.792;9.260;2022-11-15T17:31:28;3.33;;;2.05;;
15356;SDS011;7778;48.792;9.260;2022-11-15T17:34:16;4.10;;;2.67;;
15356;SDS011;7778;48.792;9.260;2022-11-15T17:37:01;2.55;;;1.85;;